Time;durP1;ratioP1;P1;durP2;ratioP2;P2;SDS_P1;SDS_P2;PMS_P1;PMS_P2;Temp;Humidity;BMP_temperature;BMP_pressure;BME280_temperature;BME280_humidity;BME280_pressure;Samples;Min_cycle;Max_cycle;Signal;HPM_P1;HPM_P2
2022/05/24 00:01:33;;;;;;;3.63;3.33;;;14.60;99.90;;;;;;497293;239;28832;-70
2022/05/24 00:03:34;;;;;;;3.10;2.90;;;14.60;99.90;;;;;;497253;239;28788;-71
2022/05/24 00:05:35;;;;;;;3.13;2.93;;;14.60;99.90;;;;;;497264;239;28760;-70
2022/05/24 00:07:36;;;;;;;3.10;2.80;;;14.60;99.90;;;;;;497257;239;29330;-70
2022/05/24 00:09:38;;;;;;;3.47;3.17;;;14.60;99.90;;;;;;497279;239;29076;-71
2022/05/24 00:11:39;;;;;;;4.70;3.67;;;14.60;99.90;;;;;;497291;239;28363;-70
2022/05/24 00:13:40;;;;;;;3.27;3.03;;;14.60;99.90;;;;;;497284;239;28520;-70
2022/05/24 00:15:42;;;;;;;2.90;2.70;;;14.50;99.90;;;;;;497305;239;28765;-70
2022/05/24 00:17:43;;;;;;;3.20;3.00;;;14.60;99.90;;;;;;497306;239;28182;-70
2022/05/24 00:19:44;;;;;;;3.00;2.80;;;14.60;99.90;;;;;;497282;239;28290;-73
2022/05/24 00:21:45;;;;;;;3.67;3.37;;;14.60;99.90;;;;;;497312;239;28455;-70
2022/05/24 00:23:46;;;;;;;2.67;2.47;;;14.60;99.90;;;;;;497225;239;28606;-71
2022/05/24 00:25:48;;;;;;;3.03;2.83;;;14.60;99.90;;;;;;497286;239;28928;-70
2022/05/24 00:27:49;;;;;;;2.60;2.40;;;14.60;99.90;;;;;;497243;239;28989;-70
2022/05/24 00:29:50;;;;;;;3.03;2.83;;;14.70;99.90;;;;;;497275;239;29259;-71
2022/05/24 00:31:53;;;;;;;2.70;2.50;;;14.60;99.90;;;;;;497259;239;28267;-71
2022/05/24 00:33:53;;;;;;;2.73;2.53;;;14.60;99.90;;;;;;497149;239;28544;-70
2022/05/24 00:35:54;;;;;;;2.77;2.50;;;14.60;99.90;;;;;;497180;238;28840;-70
2022/05/24 00:37:55;;;;;;;2.53;2.43;;;14.60;99.90;;;;;;497146;239;28916;-70
2022/05/24 00:39:57;;;;;;;2.53;2.33;;;14.50;99.90;;;;;;497215;239;28812;-70
2022/05/24 00:41:58;;;;;;;2.47;2.30;;;14.40;99.90;;;;;;497305;239;28775;-71
2022/05/24 00:43:59;;;;;;;2.73;2.53;;;14.40;99.90;;;;;;497281;239;28877;-71
2022/05/24 00:46:00;;;;;;;2.30;2.20;;;14.50;99.90;;;;;;497225;239;28764;-71
2022/05/24 00:48:02;;;;;;;2.73;2.53;;;14.40;99.90;;;;;;497227;239;29285;-70
2022/05/24 00:50:03;;;;;;;2.70;2.50;;;14.40;99.90;;;;;;497274;239;29084;-73
2022/05/24 00:52:04;;;;;;;5.13;2.33;;;14.50;99.90;;;;;;497256;239;29299;-70
2022/05/24 00:54:05;;;;;;;2.47;2.27;;;14.50;99.90;;;;;;497261;239;28805;-70
2022/05/24 00:56:07;;;;;;;2.40;2.20;;;14.50;99.90;;;;;;497230;239;28756;-70
2022/05/24 00:58:08;;;;;;;3.20;2.50;;;14.40;99.90;;;;;;497231;239;28827;-70
2022/05/24 01:00:09;;;;;;;3.10;2.80;;;14.40;99.90;;;;;;497264;239;28910;-70
2022/05/24 01:02:10;;;;;;;2.57;2.37;;;14.40;99.90;;;;;;497265;238;28810;-70
2022/05/24 01:04:12;;;;;;;2.83;2.63;;;14.30;99.90;;;;;;497259;239;28831;-72
2022/05/24 01:06:13;;;;;;;2.77;2.57;;;14.30;99.90;;;;;;497254;239;28807;-70
2022/05/24 01:18:10;;;;;;;3.10;2.80;;;14.00;99.90;;;;;;497253;239;28295;-70
2022/05/24 01:20:13;;;;;;;2.70;2.50;;;13.90;99.90;;;;;;497232;239;28388;-70
2022/05/24 01:22:13;;;;;;;3.00;2.80;;;13.80;99.90;;;;;;497164;239;28379;-70
2022/05/24 01:24:14;;;;;;;2.67;2.47;;;13.80;99.90;;;;;;497241;239;28302;-70
2022/05/24 01:26:15;;;;;;;4.10;2.93;;;13.90;99.90;;;;;;497271;239;28902;-70
2022/05/24 01:28:16;;;;;;;2.70;2.60;;;13.90;99.90;;;;;;497273;239;28874;-71
2022/05/24 01:30:18;;;;;;;3.40;3.10;;;13.90;99.90;;;;;;497255;239;28681;-70
2022/05/24 01:36:58;;;;;;;2.77;2.50;;;14.00;99.90;;;;;;497275;238;28516;-72
2022/05/24 01:39:00;;;;;;;2.63;2.43;;;14.10;99.90;;;;;;497268;239;28435;-70
2022/05/24 01:41:00;;;;;;;3.00;2.80;;;14.10;99.90;;;;;;497242;239;28569;-70
2022/05/24 01:43:02;;;;;;;2.50;2.40;;;14.20;99.90;;;;;;497253;239;28359;-70
2022/05/24 01:45:03;;;;;;;2.90;2.70;;;14.30;99.90;;;;;;497238;239;28872;-70
2022/05/24 01:47:04;;;;;;;2.80;2.60;;;14.30;99.90;;;;;;497270;239;29237;-72
2022/05/24 01:49:06;;;;;;;2.90;2.70;;;14.20;99.90;;;;;;497251;239;29067;-70
2022/05/24 01:51:07;;;;;;;3.80;3.50;;;14.20;99.90;;;;;;497257;239;28779;-70
2022/05/24 01:53:08;;;;;;;3.53;3.33;;;14.20;99.90;;;;;;497231;239;28353;-70
2022/05/24 01:55:09;;;;;;;3.27;3.07;;;14.20;99.90;;;;;;497272;239;28903;-70
2022/05/24 01:57:11;;;;;;;4.10;3.47;;;14.20;99.90;;;;;;497263;239;29286;-71
2022/05/24 01:59:12;;;;;;;3.77;3.30;;;14.30;99.90;;;;;;497256;239;29003;-70
2022/05/24 02:01:13;;;;;;;3.43;3.13;;;14.30;99.90;;;;;;497069;239;28530;-70
2022/05/24 02:03:14;;;;;;;3.20;2.87;;;14.40;99.90;;;;;;497019;239;28269;-70
2022/05/24 02:05:16;;;;;;;2.83;2.63;;;14.40;99.90;;;;;;497063;239;28793;-70
2022/05/24 02:07:17;;;;;;;6.00;3.60;;;14.40;99.90;;;;;;497194;239;28391;-70
2022/05/24 02:09:18;;;;;;;4.10;3.80;;;14.40;99.90;;;;;;497293;239;28481;-70
2022/05/24 02:11:19;;;;;;;3.43;3.10;;;14.40;99.90;;;;;;497275;239;28865;-71
2022/05/24 02:13:21;;;;;;;3.83;3.13;;;14.40;99.90;;;;;;497290;239;29206;-74
2022/05/24 02:15:22;;;;;;;2.97;2.77;;;14.40;99.90;;;;;;497259;239;29184;-70
2022/05/24 02:17:23;;;;;;;3.33;3.13;;;14.40;99.90;;;;;;497280;239;28975;-71
2022/05/24 02:19:24;;;;;;;3.00;2.80;;;14.40;99.90;;;;;;497276;239;28760;-70
2022/05/24 02:21:26;;;;;;;4.70;2.70;;;14.40;99.90;;;;;;497274;239;28511;-70
2022/05/24 02:23:27;;;;;;;2.60;2.50;;;14.30;99.90;;;;;;497271;239;28888;-73
2022/05/24 02:25:28;;;;;;;3.10;2.90;;;14.30;99.90;;;;;;497273;239;28792;-70
2022/05/24 02:27:29;;;;;;;2.80;2.60;;;14.30;99.90;;;;;;497255;239;28834;-70
2022/05/24 02:29:31;;;;;;;3.13;2.93;;;14.30;99.90;;;;;;497264;239;28454;-70
2022/05/24 02:31:33;;;;;;;3.00;2.80;;;14.30;99.90;;;;;;497272;239;28357;-70
2022/05/24 02:33:33;;;;;;;2.77;2.57;;;14.30;99.90;;;;;;497189;239;28522;-72
2022/05/24 02:35:34;;;;;;;2.67;2.50;;;14.30;99.90;;;;;;497242;239;28511;-71
2022/05/24 02:37:36;;;;;;;2.60;2.40;;;14.30;99.90;;;;;;497234;239;28981;-70
2022/05/24 02:41:28;;;;;;;2.70;2.50;;;14.30;99.90;;;;;;497229;239;28901;-70
2022/05/24 02:41:38;;;;;;;2.63;2.53;;;14.30;99.90;;;;;;495815;239;28758;-70
2022/05/24 02:43:39;;;;;;;2.60;2.40;;;14.30;99.90;;;;;;497272;239;28613;-70
2022/05/24 02:45:41;;;;;;;2.57;2.37;;;14.30;99.90;;;;;;497273;239;28417;-70
2022/05/24 02:47:42;;;;;;;3.77;3.13;;;14.30;99.90;;;;;;497236;239;28331;-71
2022/05/24 02:49:43;;;;;;;2.90;2.70;;;14.30;99.90;;;;;;497251;239;28277;-69
2022/05/24 02:51:47;;;;;;;2.30;2.20;;;;;;;;;;497301;239;28465;-71
2022/05/24 02:53:47;;;;;;;2.50;2.40;;;14.30;99.90;;;;;;497168;239;28021;-70
2022/05/24 02:55:48;;;;;;;2.30;2.20;;;14.20;99.90;;;;;;497258;239;28408;-71
2022/05/24 02:57:49;;;;;;;2.63;2.53;;;14.20;99.90;;;;;;497231;239;28452;-70
2022/05/24 02:59:51;;;;;;;2.60;2.40;;;14.20;99.90;;;;;;497275;239;28397;-70
2022/05/24 03:01:52;;;;;;;2.40;2.30;;;14.20;99.90;;;;;;497253;239;28428;-73
2022/05/24 03:03:53;;;;;;;2.50;2.30;;;14.20;99.90;;;;;;497242;239;28304;-70
2022/05/24 03:05:54;;;;;;;2.13;2.03;;;14.20;99.90;;;;;;497214;239;28291;-71
2022/05/24 03:10:15;;;;;;;2.20;2.10;;;14.20;99.90;;;;;;497279;238;28808;-71
2022/05/24 03:14:36;;;;;;;2.73;2.30;;;14.20;99.90;;;;;;497223;238;28406;-72
2022/05/24 03:16:37;;;;;;;4.60;2.53;;;14.20;99.90;;;;;;497265;239;28242;-70
2022/05/24 03:18:39;;;;;;;2.53;2.33;;;14.20;99.90;;;;;;497260;239;28389;-70
2022/05/24 03:20:40;;;;;;;2.60;2.40;;;14.10;99.90;;;;;;497221;239;29304;-70
2022/05/24 03:22:41;;;;;;;2.70;2.50;;;14.10;99.90;;;;;;497226;239;28850;-70
2022/05/24 03:24:42;;;;;;;2.67;2.47;;;14.10;99.90;;;;;;497270;239;29015;-70
2022/05/24 03:26:44;;;;;;;2.20;2.10;;;14.10;99.90;;;;;;497251;239;28859;-71
2022/05/24 03:28:47;;;;;;;2.20;2.10;;;14.10;99.90;;;;;;497236;239;28170;-70
2022/05/24 03:30:46;;;;;;;2.30;2.20;;;14.00;99.90;;;;;;497141;239;28137;-70
2022/05/24 03:32:47;;;;;;;2.13;2.03;;;13.90;99.90;;;;;;497274;239;28221;-71
2022/05/24 03:34:49;;;;;;;2.10;2.00;;;14.00;99.90;;;;;;497285;239;28191;-71
2022/05/24 03:36:50;;;;;;;2.23;2.13;;;14.00;99.90;;;;;;497277;239;28625;-70
2022/05/24 03:38:51;;;;;;;1.80;1.70;;;14.00;99.90;;;;;;497260;239;28963;-70
2022/05/24 03:40:52;;;;;;;2.33;2.23;;;14.00;99.90;;;;;;497265;239;28845;-70
2022/05/24 03:42:54;;;;;;;2.30;2.10;;;13.90;99.90;;;;;;497285;239;28272;-70
2022/05/24 03:44:55;;;;;;;2.33;2.13;;;13.90;99.90;;;;;;497209;239;28188;-72
2022/05/24 03:46:56;;;;;;;2.07;1.97;;;14.00;99.90;;;;;;497234;239;28344;-70
2022/05/24 03:48:57;;;;;;;3.30;2.03;;;14.00;99.90;;;;;;497274;239;28383;-70
2022/05/24 03:50:59;;;;;;;1.97;1.83;;;14.00;99.90;;;;;;497239;239;28474;-70
2022/05/24 03:53:01;;;;;;;1.70;1.60;;;14.00;99.90;;;;;;497288;239;28229;-70
2022/05/24 03:55:01;;;;;;;1.80;1.70;;;14.00;99.90;;;;;;497295;239;28103;-70
2022/05/24 03:59:22;;;;;;;1.60;1.50;;;14.00;99.90;;;;;;497307;238;28255;-70
2022/05/24 04:01:23;;;;;;;1.40;1.40;;;14.00;99.90;;;;;;497300;239;28079;-72
2022/05/24 04:03:25;;;;;;;1.50;1.50;;;14.00;99.90;;;;;;497297;239;28226;-70
2022/05/24 04:05:26;;;;;;;2.53;2.07;;;14.00;99.90;;;;;;497309;239;28174;-70
2022/05/24 04:07:27;;;;;;;1.90;1.80;;;14.00;99.90;;;;;;497315;239;28405;-70
2022/05/24 04:09:28;;;;;;;1.70;1.60;;;14.00;99.90;;;;;;497320;239;28274;-70
2022/05/24 04:11:30;;;;;;;2.23;2.00;;;14.00;99.90;;;;;;497300;239;28471;-70
2022/05/24 04:13:31;;;;;;;1.50;1.50;;;14.00;99.90;;;;;;497263;239;28320;-70
2022/05/24 04:15:32;;;;;;;2.00;1.90;;;14.00;99.90;;;;;;497264;239;28283;-71
2022/05/24 04:17:34;;;;;;;2.17;2.07;;;14.00;99.90;;;;;;497233;239;29020;-70
2022/05/24 04:19:35;;;;;;;2.10;2.00;;;14.10;99.90;;;;;;497295;239;28781;-70
2022/05/24 04:21:36;;;;;;;1.80;1.70;;;14.10;99.90;;;;;;497291;239;28747;-72
2022/05/24 04:23:37;;;;;;;3.53;1.97;;;14.10;99.90;;;;;;497289;239;28443;-70
2022/05/24 04:25:38;;;;;;;1.80;1.70;;;14.10;99.90;;;;;;497281;239;28496;-72
2022/05/24 04:27:40;;;;;;;1.77;1.67;;;14.10;99.90;;;;;;497147;239;28352;-71
2022/05/24 04:29:41;;;;;;;1.73;1.63;;;14.10;99.90;;;;;;497286;239;28916;-70
2022/05/24 04:31:42;;;;;;;2.00;1.70;;;14.10;99.90;;;;;;497314;239;29065;-72
2022/05/24 04:33:44;;;;;;;1.50;1.40;;;14.20;99.90;;;;;;497284;239;29253;-70
2022/05/24 04:35:45;;;;;;;1.40;1.40;;;14.10;99.90;;;;;;497139;239;28840;-70
2022/05/24 04:37:46;;;;;;;1.60;1.60;;;14.10;99.90;;;;;;497302;239;28445;-70
2022/05/24 04:39:47;;;;;;;3.70;1.80;;;14.10;99.90;;;;;;497252;239;28483;-70
2022/05/24 04:44:08;;;;;;;2.00;1.90;;;14.20;99.90;;;;;;497230;237;28559;-70
2022/05/24 04:46:11;;;;;;;1.67;1.57;;;14.20;99.90;;;;;;497276;239;28366;-70
2022/05/24 04:48:11;;;;;;;1.67;1.67;;;14.20;99.90;;;;;;497170;239;28413;-73
2022/05/24 04:50:12;;;;;;;2.00;1.90;;;14.20;99.90;;;;;;497228;239;28774;-70
2022/05/24 04:52:13;;;;;;;1.43;1.43;;;14.10;99.90;;;;;;497241;239;28492;-71
2022/05/24 04:54:14;;;;;;;1.57;1.50;;;14.00;99.90;;;;;;497225;239;28179;-70
2022/05/24 04:56:16;;;;;;;1.80;1.70;;;13.80;99.90;;;;;;497224;239;28492;-71
2022/05/24 04:58:17;;;;;;;1.30;1.30;;;13.70;99.90;;;;;;497267;239;28184;-73
2022/05/24 05:00:18;;;;;;;1.30;1.30;;;13.60;99.90;;;;;;497250;239;28439;-70
2022/05/24 05:02:19;;;;;;;1.70;1.60;;;13.50;99.90;;;;;;497247;239;28847;-71
2022/05/24 05:04:21;;;;;;;1.50;1.40;;;13.50;99.90;;;;;;497248;238;28604;-70
2022/05/24 05:06:22;;;;;;;1.70;1.33;;;13.50;99.90;;;;;;497268;239;28618;-71
2022/05/24 05:08:24;;;;;;;1.30;1.30;;;13.60;99.90;;;;;;497259;239;28275;-72
2022/05/24 05:10:24;;;;;;;17.50;2.23;;;13.70;99.90;;;;;;497249;239;28289;-71
2022/05/24 05:12:26;;;;;;;1.23;1.23;;;13.70;99.90;;;;;;497269;239;28286;-71
2022/05/24 05:14:27;;;;;;;1.23;1.23;;;13.90;99.90;;;;;;497216;239;28299;-70
2022/05/24 05:16:28;;;;;;;1.50;1.40;;;14.00;99.90;;;;;;497215;239;28337;-70
2022/05/24 05:18:29;;;;;;;1.40;1.40;;;13.90;99.90;;;;;;497280;239;28387;-73
2022/05/24 05:20:31;;;;;;;1.50;1.47;;;13.80;99.90;;;;;;497266;239;28460;-70
2022/05/24 05:22:32;;;;;;;1.40;1.40;;;13.80;99.90;;;;;;497277;239;28784;-70
2022/05/24 05:24:33;;;;;;;1.27;1.27;;;13.90;99.90;;;;;;497235;239;28456;-70
2022/05/24 05:26:34;;;;;;;1.40;1.30;;;13.90;99.90;;;;;;497248;239;29248;-70
2022/05/24 05:28:36;;;;;;;1.40;1.30;;;14.00;99.90;;;;;;497264;239;28799;-73
2022/05/24 05:32:56;;;;;;;1.40;1.40;;;14.10;99.90;;;;;;497267;238;28500;-71
2022/05/24 05:34:58;;;;;;;1.60;1.50;;;14.10;99.90;;;;;;497265;239;29299;-70
2022/05/24 05:36:59;;;;;;;1.20;1.20;;;14.00;99.90;;;;;;497295;238;29203;-71
2022/05/24 05:39:00;;;;;;;1.30;1.30;;;13.90;99.90;;;;;;497277;239;28890;-72
2022/05/24 05:41:01;;;;;;;2.20;1.20;;;13.80;99.90;;;;;;497251;239;29301;-71
2022/05/24 05:43:03;;;;;;;1.40;1.30;;;13.70;99.90;;;;;;497242;239;28531;-70
2022/05/24 05:45:06;;;;;;;1.40;1.40;;;13.80;99.90;;;;;;497215;239;28800;-70
2022/05/24 05:47:05;;;;;;;1.30;1.30;;;13.90;99.90;;;;;;496931;239;28754;-70
2022/05/24 05:49:06;;;;;;;1.30;1.30;;;13.90;99.90;;;;;;497250;239;28528;-71
2022/05/24 05:51:08;;;;;;;1.30;1.30;;;13.90;99.90;;;;;;497241;239;28360;-70
2022/05/24 05:53:09;;;;;;;1.13;1.13;;;13.80;99.90;;;;;;497262;238;28417;-70
2022/05/24 05:55:10;;;;;;;1.30;1.30;;;13.80;99.90;;;;;;497233;239;28817;-71
2022/05/24 05:57:12;;;;;;;1.40;1.40;;;13.90;99.90;;;;;;497265;239;28460;-70
2022/05/24 05:59:13;;;;;;;2.20;1.50;;;13.90;99.90;;;;;;497288;239;28453;-71
2022/05/24 06:01:14;;;;;;;1.60;1.40;;;13.80;99.90;;;;;;497261;239;28853;-70
2022/05/24 06:03:15;;;;;;;1.40;1.40;;;13.70;99.90;;;;;;497254;239;29380;-70
2022/05/24 06:05:16;;;;;;;1.20;1.20;;;13.90;99.90;;;;;;497267;239;28928;-70
2022/05/24 06:07:18;;;;;;;1.30;1.30;;;14.00;99.90;;;;;;497289;239;28685;-71
2022/05/24 06:09:19;;;;;;;1.30;1.30;;;14.10;99.90;;;;;;497276;239;28413;-73
2022/05/24 06:11:21;;;;;;;1.43;1.33;;;14.00;99.90;;;;;;497264;239;28761;-71
2022/05/24 06:13:21;;;;;;;2.30;1.77;;;14.00;99.90;;;;;;497183;239;28502;-71
2022/05/24 06:15:25;;;;;;;1.53;1.50;;;13.70;99.90;;;;;;497220;239;28413;-71
2022/05/24 06:17:24;;;;;;;1.67;1.57;;;13.70;99.90;;;;;;497099;239;28805;-71
2022/05/24 06:19:25;;;;;;;1.30;1.20;;;13.60;99.90;;;;;;497253;239;28794;-72
2022/05/24 06:21:28;;;;;;;1.67;1.57;;;13.50;99.90;;;;;;497235;239;28547;-70
2022/05/24 06:23:28;;;;;;;1.50;1.40;;;13.50;99.90;;;;;;497131;239;28423;-70
2022/05/24 06:25:29;;;;;;;1.40;1.30;;;13.60;99.90;;;;;;497225;238;29192;-71
2022/05/24 06:27:30;;;;;;;1.40;1.30;;;13.60;99.90;;;;;;497190;239;29295;-71
2022/05/24 06:29:32;;;;;;;1.30;1.30;;;13.50;99.90;;;;;;497259;239;28885;-72
2022/05/24 06:31:33;;;;;;;1.50;1.37;;;13.40;99.90;;;;;;497153;239;28937;-72
2022/05/24 06:33:34;;;;;;;1.63;1.53;;;13.30;99.90;;;;;;497251;239;28190;-72
2022/05/24 06:35:35;;;;;;;1.53;1.43;;;13.20;99.90;;;;;;497199;239;28252;-70
2022/05/24 06:37:37;;;;;;;1.97;1.30;;;13.40;99.90;;;;;;497249;239;28244;-71
2022/05/24 06:39:38;;;;;;;1.67;1.60;;;13.40;99.90;;;;;;497234;239;28574;-73
2022/05/24 06:41:40;;;;;;;1.90;1.80;;;;;;;;;;497243;239;28267;-71
2022/05/24 06:43:41;;;;;;;1.63;1.53;;;13.70;99.90;;;;;;497254;239;27143;-70
2022/05/24 06:45:43;;;;;;;1.80;1.70;;;13.70;99.90;;;;;;497219;239;28460;-71
2022/05/24 06:47:44;;;;;;;1.67;1.60;;;13.90;99.90;;;;;;497273;239;28513;-72
2022/05/24 06:49:45;;;;;;;4.07;1.80;;;13.70;99.90;;;;;;497276;239;28491;-71
2022/05/24 06:51:46;;;;;;;1.47;1.47;;;13.80;99.90;;;;;;497250;239;28267;-70
2022/05/24 06:53:48;;;;;;;1.40;1.40;;;13.80;99.90;;;;;;497225;239;28472;-70
2022/05/24 06:55:49;;;;;;;1.80;1.70;;;13.80;99.90;;;;;;497218;239;28615;-71
2022/05/24 06:57:50;;;;;;;1.80;1.60;;;13.90;99.90;;;;;;497278;239;28771;-74
2022/05/24 07:02:26;;;;;;;2.03;1.73;;;13.90;99.90;;;;;;497180;239;28786;-71
2022/05/24 07:04:27;;;;;;;2.57;1.87;;;13.90;99.90;;;;;;497228;239;28400;-70
2022/05/24 07:06:29;;;;;;;2.00;1.80;;;13.80;99.90;;;;;;497262;239;28427;-73
2022/05/24 07:08:30;;;;;;;1.63;1.53;;;14.00;99.90;;;;;;497250;239;28457;-70
2022/05/24 07:10:31;;;;;;;1.70;1.60;;;13.90;99.90;;;;;;497229;239;28911;-70
2022/05/24 07:12:32;;;;;;;3.60;1.77;;;13.80;99.90;;;;;;497229;239;29308;-70
2022/05/24 07:14:34;;;;;;;1.80;1.70;;;13.70;99.90;;;;;;497233;239;29284;-71
2022/05/24 07:16:35;;;;;;;1.97;1.87;;;13.70;99.90;;;;;;497270;239;29392;-71
2022/05/24 07:18:36;;;;;;;2.10;1.77;;;13.90;99.90;;;;;;497040;239;28766;-70
2022/05/24 07:20:37;;;;;;;1.70;1.60;;;14.00;99.90;;;;;;497242;239;28798;-71
2022/05/24 07:22:39;;;;;;;1.60;1.50;;;14.10;99.90;;;;;;497262;239;28842;-70
2022/05/24 07:24:40;;;;;;;1.60;1.50;;;14.40;99.90;;;;;;497240;239;28798;-71
2022/05/24 07:26:41;;;;;;;1.57;1.47;;;14.80;99.90;;;;;;497271;239;28786;-70
2022/05/24 07:28:42;;;;;;;1.80;1.70;;;14.70;99.90;;;;;;497279;239;28771;-70
2022/05/24 07:30:44;;;;;;;2.10;1.73;;;14.60;99.90;;;;;;497279;239;28888;-71
2022/05/24 07:32:45;;;;;;;1.77;1.70;;;14.50;99.90;;;;;;497277;239;28789;-71
2022/05/24 07:34:46;;;;;;;2.10;2.00;;;14.30;99.90;;;;;;497166;239;28795;-70
2022/05/24 07:36:47;;;;;;;2.20;2.10;;;14.10;99.90;;;;;;497207;239;30293;-70
2022/05/24 07:38:49;;;;;;;1.80;1.70;;;14.10;99.90;;;;;;497251;239;29279;-70
2022/05/24 07:47:49;;;;;;;1.43;1.43;;;14.60;99.90;;;;;;497145;239;28824;-71
2022/05/24 07:49:50;;;;;;;1.47;1.37;;;14.50;99.90;;;;;;497164;239;28866;-70
2022/05/24 07:51:51;;;;;;;1.80;1.70;;;14.30;99.90;;;;;;497228;239;28855;-70
2022/05/24 07:53:52;;;;;;;1.53;1.40;;;14.10;99.90;;;;;;497251;239;28852;-71
2022/05/24 07:55:54;;;;;;;1.20;1.20;;;14.20;99.90;;;;;;497196;239;28831;-70
2022/05/24 07:57:55;;;;;;;1.40;1.40;;;14.20;99.90;;;;;;497195;239;28878;-70
2022/05/24 07:59:56;;;;;;;1.50;1.40;;;14.20;99.90;;;;;;497258;239;29388;-71
2022/05/24 08:01:57;;;;;;;1.70;1.60;;;14.20;99.90;;;;;;497278;239;29356;-70
2022/05/24 08:03:59;;;;;;;1.60;1.50;;;14.10;99.90;;;;;;497240;239;28811;-71
2022/05/24 08:06:00;;;;;;;1.83;1.73;;;14.00;99.90;;;;;;497265;239;28818;-70
2022/05/24 08:08:01;;;;;;;2.13;1.80;;;14.10;99.90;;;;;;497265;239;28791;-71
2022/05/24 08:10:02;;;;;;;1.20;1.20;;;14.10;99.90;;;;;;497281;239;28803;-73
2022/05/24 08:12:04;;;;;;;1.53;1.30;;;14.10;99.90;;;;;;497262;239;28636;-70
2022/05/24 08:14:06;;;;;;;1.70;1.60;;;14.20;99.90;;;;;;497266;239;28394;-73
2022/05/24 08:16:06;;;;;;;1.43;1.40;;;14.30;99.90;;;;;;497193;239;28549;-70
2022/05/24 08:18:07;;;;;;;1.60;1.60;;;14.40;99.90;;;;;;497224;239;28887;-70
2022/05/24 08:20:12;;;;;;;1.47;1.37;;;14.40;99.90;;;;;;497227;239;28947;-71
2022/05/24 08:22:10;;;;;;;1.50;1.40;;;14.40;99.90;;;;;;497103;239;29783;-70
2022/05/24 08:24:11;;;;;;;1.80;1.70;;;14.20;99.90;;;;;;497289;239;29327;-73
2022/05/24 08:26:13;;;;;;;1.83;1.73;;;14.00;99.90;;;;;;497267;239;29294;-71
2022/05/24 08:28:14;;;;;;;2.40;1.50;;;13.90;99.90;;;;;;497223;239;28801;-70
2022/05/24 08:30:15;;;;;;;1.63;1.53;;;13.90;99.90;;;;;;497262;239;28308;-70
2022/05/24 08:32:16;;;;;;;1.50;1.40;;;14.00;99.90;;;;;;497290;239;28766;-70
2022/05/24 08:34:18;;;;;;;3.23;1.60;;;14.20;99.90;;;;;;497273;239;28855;-71
2022/05/24 08:36:19;;;;;;;2.13;2.03;;;14.50;99.90;;;;;;497265;239;28770;-71
2022/05/24 08:38:20;;;;;;;2.37;2.27;;;14.80;99.90;;;;;;497267;239;28499;-71
2022/05/24 08:40:22;;;;;;;2.87;2.67;;;15.00;99.90;;;;;;497305;239;28876;-70
2022/05/24 08:42:22;;;;;;;2.53;2.43;;;15.30;99.90;;;;;;497248;239;28847;-71
2022/05/24 08:49:03;;;;;;;1.83;1.73;;;15.50;99.90;;;;;;497259;238;29939;-71
2022/05/24 08:51:05;;;;;;;1.90;1.70;;;15.60;99.90;;;;;;497302;239;28812;-70
2022/05/24 08:53:06;;;;;;;2.03;1.83;;;15.50;99.90;;;;;;497184;239;28873;-73
2022/05/24 08:55:07;;;;;;;2.13;2.00;;;15.40;99.90;;;;;;497284;239;28764;-70
2022/05/24 08:57:08;;;;;;;1.60;1.50;;;15.50;99.90;;;;;;497239;239;28795;-71
2022/05/24 08:59:10;;;;;;;1.60;1.50;;;15.50;99.90;;;;;;497273;239;28856;-70
2022/05/24 09:01:11;;;;;;;1.57;1.47;;;15.60;99.90;;;;;;497278;239;28809;-71
2022/05/24 09:03:12;;;;;;;1.57;1.50;;;15.60;99.90;;;;;;497295;239;28785;-72
2022/05/24 09:05:13;;;;;;;1.30;1.30;;;15.40;99.90;;;;;;497277;239;28766;-71
2022/05/24 09:07:15;;;;;;;1.67;1.57;;;15.60;99.90;;;;;;497286;239;29203;-71
2022/05/24 09:09:16;;;;;;;1.40;1.30;;;16.00;99.90;;;;;;497268;239;29212;-70
2022/05/24 09:11:17;;;;;;;1.43;1.33;;;16.10;99.90;;;;;;497232;239;29248;-71
2022/05/24 09:13:19;;;;;;;1.77;1.40;;;16.10;99.90;;;;;;497149;239;29285;-70
2022/05/24 09:15:20;;;;;;;1.50;1.40;;;16.20;99.90;;;;;;497086;239;28753;-71
2022/05/24 09:17:21;;;;;;;1.60;1.30;;;16.40;99.90;;;;;;497118;239;28810;-71
2022/05/24 09:19:23;;;;;;;1.50;1.40;;;16.60;99.90;;;;;;497271;239;28833;-70
2022/05/24 09:21:25;;;;;;;1.67;1.60;;;15.80;99.90;;;;;;497265;239;28685;-71
2022/05/24 09:23:25;;;;;;;1.47;1.40;;;15.70;99.90;;;;;;497173;239;28866;-70
2022/05/24 09:25:26;;;;;;;1.73;1.63;;;15.50;99.90;;;;;;497292;239;28771;-71
2022/05/24 09:27:28;;;;;;;1.50;1.40;;;15.10;99.90;;;;;;497307;239;28885;-72
2022/05/24 09:29:28;;;;;;;1.10;1.10;;;14.80;99.90;;;;;;493126;239;36235;-70
2022/05/24 09:31:30;;;;;;;2.90;1.30;;;14.70;99.90;;;;;;497357;239;27532;-70
2022/05/24 09:33:31;;;;;;;1.67;1.57;;;14.70;99.90;;;;;;497305;239;29372;-71
2022/05/24 09:35:32;;;;;;;1.20;1.20;;;14.60;99.90;;;;;;497289;239;29184;-70
2022/05/24 09:37:33;;;;;;;1.50;1.40;;;14.60;99.90;;;;;;497243;239;29297;-70
2022/05/24 09:39:35;;;;;;;1.67;1.40;;;14.50;99.90;;;;;;497284;239;28886;-70
2022/05/24 09:41:37;;;;;;;1.43;1.40;;;14.50;99.90;;;;;;497317;239;28676;-70
2022/05/24 09:43:39;;;;;;;1.90;1.40;;;15.10;99.90;;;;;;497303;239;28772;-71
2022/05/24 09:45:39;;;;;;;2.10;1.53;;;15.70;99.90;;;;;;497248;239;28884;-71
2022/05/24 09:47:41;;;;;;;2.40;1.47;;;15.90;99.90;;;;;;497288;239;29285;-70
2022/05/24 09:49:42;;;;;;;1.50;1.40;;;15.80;99.90;;;;;;497213;239;29367;-71
2022/05/24 09:51:43;;;;;;;1.60;1.30;;;15.90;99.90;;;;;;497281;239;29444;-72
2022/05/24 09:53:44;;;;;;;1.93;1.40;;;15.90;99.90;;;;;;497251;239;28772;-70
2022/05/24 09:55:47;;;;;;;1.47;1.30;;;16.00;99.90;;;;;;497260;239;28790;-71
2022/05/24 09:57:48;;;;;;;1.33;1.23;;;16.10;99.90;;;;;;497226;239;28806;-71
2022/05/24 09:59:49;;;;;;;1.50;1.40;;;16.30;99.90;;;;;;497290;239;28883;-71
2022/05/24 10:01:50;;;;;;;1.53;1.40;;;16.20;99.90;;;;;;497339;239;29298;-71
2022/05/24 10:03:54;;;;;;;1.40;1.33;;;16.00;99.90;;;;;;497298;239;29346;-72
2022/05/24 10:05:55;;;;;;;1.20;1.20;;;16.00;99.90;;;;;;497313;239;28803;-70
2022/05/24 10:07:56;;;;;;;1.67;1.30;;;16.00;99.90;;;;;;497263;239;28688;-71
2022/05/24 10:09:57;;;;;;;1.40;1.30;;;15.90;99.90;;;;;;497273;239;29946;-70
2022/05/24 10:11:59;;;;;;;1.97;1.43;;;16.20;99.90;;;;;;497311;239;29272;-71
2022/05/24 10:14:00;;;;;;;1.30;1.20;;;16.40;99.90;;;;;;497310;239;29363;-72
2022/05/24 10:16:01;;;;;;;1.30;1.20;;;16.70;99.90;;;;;;497312;239;28755;-71
2022/05/24 10:18:02;;;;;;;2.07;1.33;;;17.10;99.90;;;;;;497279;239;28876;-72
2022/05/24 10:20:05;;;;;;;1.33;1.23;;;17.20;99.90;;;;;;497196;239;28782;-71
2022/05/24 10:22:05;;;;;;;1.23;1.13;;;17.10;99.90;;;;;;497216;239;28800;-71
2022/05/24 10:24:06;;;;;;;2.10;1.50;;;16.90;99.90;;;;;;497288;239;28809;-72
2022/05/24 10:26:07;;;;;;;1.63;1.43;;;16.60;99.90;;;;;;497290;239;28927;-71
2022/05/24 10:28:09;;;;;;;2.43;1.23;;;16.30;99.90;;;;;;497286;239;28805;-70
2022/05/24 10:30:10;;;;;;;1.30;1.30;;;16.20;99.90;;;;;;497299;239;29350;-70
2022/05/24 10:38:17;;;;;;;1.23;1.23;;;15.90;99.90;;;;;;497301;239;28852;-70
2022/05/24 10:38:52;;;;;;;1.40;1.30;;;16.20;99.90;;;;;;497256;238;28859;-70
2022/05/24 10:40:53;;;;;;;1.20;1.20;;;16.80;99.90;;;;;;497307;239;28859;-71
2022/05/24 10:42:54;;;;;;;8.60;2.33;;;16.80;99.90;;;;;;497274;239;29218;-71
2022/05/24 10:44:55;;;;;;;1.60;1.60;;;16.60;99.90;;;;;;497278;239;29291;-71
2022/05/24 10:46:57;;;;;;;1.57;1.57;;;16.30;99.90;;;;;;497307;239;29349;-74
2022/05/24 10:48:58;;;;;;;1.70;1.60;;;16.30;99.90;;;;;;497204;239;29220;-71
2022/05/24 10:50:59;;;;;;;1.53;1.43;;;16.10;99.90;;;;;;497264;239;28799;-73
2022/05/24 10:53:01;;;;;;;1.43;1.30;;;15.90;99.90;;;;;;497288;239;28855;-71
2022/05/24 10:55:03;;;;;;;1.50;1.30;;;15.80;99.90;;;;;;497260;239;28808;-70
2022/05/24 10:57:04;;;;;;;1.80;1.40;;;15.70;99.90;;;;;;497262;239;28832;-71
2022/05/24 10:59:05;;;;;;;1.73;1.20;;;15.50;99.90;;;;;;497268;239;29258;-72
2022/05/24 11:01:06;;;;;;;1.10;1.10;;;15.60;99.90;;;;;;497271;239;29262;-70
2022/05/24 11:03:08;;;;;;;1.20;1.20;;;15.60;99.90;;;;;;497252;239;29277;-71
2022/05/24 11:05:09;;;;;;;1.30;1.30;;;15.70;99.90;;;;;;497266;239;28860;-70
2022/05/24 11:07:11;;;;;;;1.43;1.43;;;15.60;99.90;;;;;;497269;239;28866;-71
2022/05/24 11:09:11;;;;;;;1.50;1.40;;;15.60;99.90;;;;;;497237;239;28897;-70
2022/05/24 11:11:13;;;;;;;1.80;1.40;;;15.90;99.90;;;;;;497282;239;28660;-70
2022/05/24 11:13:14;;;;;;;1.47;1.33;;;16.00;99.90;;;;;;497253;239;28785;-71
2022/05/24 11:15:15;;;;;;;5.30;1.20;;;16.10;99.90;;;;;;497264;239;28776;-71
2022/05/24 11:17:20;;;;;;;1.20;1.10;;;16.00;99.90;;;;;;497268;239;28819;-70